sensor_id;sensor_type;location;lat;lon;timestamp;pressure;altitude;pressure_sealevel;temperature;humidity
63285;BME280;49409;55.708;37.522;2022-07-29T00:00:37;99412.00;;;21.24;56.75
63285;BME280;49409;55.708;37.522;2022-07-29T00:03:03;99415.00;;;21.20;56.65
63285;BME280;49409;55.708;37.522;2022-07-29T00:05:29;99422.16;;;21.22;56.83
63285;BME280;49409;55.708;37.522;2022-07-29T00:07:54;99418.72;;;21.12;57.01
63285;BME280;49409;55.708;37.522;2022-07-29T00:10:20;99435.38;;;21.21;56.86
63285;BME280;49409;55.708;37.522;2022-07-29T00:12:46;99414.03;;;21.03;56.95
63285;BME280;49409;55.708;37.522;2022-07-29T00:15:12;99413.75;;;21.01;56.96
63285;BME280;49409;55.708;37.522;2022-07-29T00:17:38;99429.25;;;21.02;56.86
63285;BME280;49409;55.708;37.522;2022-07-29T00:20:04;99438.94;;;21.01;57.03
63285;BME280;49409;55.708;37.522;2022-07-29T00:22:29;99415.25;;;20.82;57.01
63285;BME280;49409;55.708;37.522;2022-07-29T00:24:55;99445.13;;;20.90;57.15
63285;BME280;49409;55.708;37.522;2022-07-29T00:27:20;99441.97;;;20.83;57.18
63285;BME280;49409;55.708;37.522;2022-07-29T00:29:47;99444.19;;;20.78;57.41
63285;BME280;49409;55.708;37.522;2022-07-29T00:32:13;99440.91;;;20.80;57.39
63285;BME280;49409;55.708;37.522;2022-07-29T00:34:38;99439.78;;;20.72;57.35
63285;BME280;49409;55.708;37.522;2022-07-29T00:37:23;99435.44;;;20.71;57.32
63285;BME280;49409;55.708;37.522;2022-07-29T00:39:48;99443.34;;;20.72;57.52
63285;BME280;49409;55.708;37.522;2022-07-29T00:42:14;99450.59;;;20.64;57.57
63285;BME280;49409;55.708;37.522;2022-07-29T00:44:40;99408.97;;;20.36;57.49
63285;BME280;49409;55.708;37.522;2022-07-29T00:47:07;99450.03;;;20.60;57.74
63285;BME280;49409;55.708;37.522;2022-07-29T00:49:34;99438.03;;;20.45;57.73
63285;BME280;49409;55.708;37.522;2022-07-29T00:52:03;99453.44;;;20.55;57.94
63285;BME280;49409;55.708;37.522;2022-07-29T00:54:29;99441.31;;;20.43;57.78
63285;BME280;49409;55.708;37.522;2022-07-29T00:56:59;99458.94;;;20.49;57.76
63285;BME280;49409;55.708;37.522;2022-07-29T00:59:26;99463.88;;;20.54;57.59
63285;BME280;49409;55.708;37.522;2022-07-29T01:01:52;99447.38;;;20.41;57.63
63285;BME280;49409;55.708;37.522;2022-07-29T01:04:19;99459.13;;;20.46;57.63
63285;BME280;49409;55.708;37.522;2022-07-29T01:06:45;99460.69;;;20.47;57.70
63285;BME280;49409;55.708;37.522;2022-07-29T01:09:11;99443.44;;;20.33;57.57
63285;BME280;49409;55.708;37.522;2022-07-29T01:11:38;99453.09;;;20.32;57.64
63285;BME280;49409;55.708;37.522;2022-07-29T01:14:06;99466.09;;;20.35;57.51
63285;BME280;49409;55.708;37.522;2022-07-29T01:16:37;99465.03;;;20.33;57.72
63285;BME280;49409;55.708;37.522;2022-07-29T01:25:24;99455.13;;;20.17;57.55
63285;BME280;49409;55.708;37.522;2022-07-29T01:30:25;99468.13;;;20.65;56.28
63285;BME280;49409;55.708;37.522;2022-07-29T01:32:59;99455.13;;;20.17;57.56
63285;BME280;49409;55.708;37.522;2022-07-29T01:35:31;99456.34;;;20.01;57.89
63285;BME280;49409;55.708;37.522;2022-07-29T01:38:12;99477.34;;;20.11;58.14
63285;BME280;49409;55.708;37.522;2022-07-29T01:41:02;99462.16;;;20.12;57.88
63285;BME280;49409;55.708;37.522;2022-07-29T01:43:40;99453.09;;;20.03;58.20
63285;BME280;49409;55.708;37.522;2022-07-29T01:46:14;99455.97;;;19.93;58.48
63285;BME280;49409;55.708;37.522;2022-07-29T01:48:47;99443.81;;;19.81;58.84
63285;BME280;49409;55.708;37.522;2022-07-29T01:51:19;99456.13;;;19.90;58.84
63285;BME280;49409;55.708;37.522;2022-07-29T01:54:24;99473.63;;;20.14;58.40
63285;BME280;49409;55.708;37.522;2022-07-29T01:56:53;99465.38;;;19.96;58.76
63285;BME280;49409;55.708;37.522;2022-07-29T01:59:21;99449.50;;;19.87;59.21
63285;BME280;49409;55.708;37.522;2022-07-29T02:01:50;99478.13;;;19.97;59.17
63285;BME280;49409;55.708;37.522;2022-07-29T02:04:19;99470.22;;;19.95;59.21
63285;BME280;49409;55.708;37.522;2022-07-29T02:06:47;99451.72;;;19.83;59.09
63285;BME280;49409;55.708;37.522;2022-07-29T02:09:14;99463.38;;;19.96;59.16
63285;BME280;49409;55.708;37.522;2022-07-29T02:11:47;99469.25;;;19.98;58.92
63285;BME280;49409;55.708;37.522;2022-07-29T02:14:14;99475.81;;;19.95;59.35
63285;BME280;49409;55.708;37.522;2022-07-29T02:16:41;99456.31;;;19.86;59.62
63285;BME280;49409;55.708;37.522;2022-07-29T02:22:21;99476.38;;;19.99;59.33
63285;BME280;49409;55.708;37.522;2022-07-29T02:24:50;99479.47;;;20.01;59.19
63285;BME280;49409;55.708;37.522;2022-07-29T02:27:19;99481.03;;;20.03;59.18
63285;BME280;49409;55.708;37.522;2022-07-29T02:29:46;99463.16;;;19.85;59.28
63285;BME280;49409;55.708;37.522;2022-07-29T02:32:13;99441.09;;;19.72;59.29
63285;BME280;49409;55.708;37.522;2022-07-29T02:34:42;99492.38;;;19.99;59.50
63285;BME280;49409;55.708;37.522;2022-07-29T02:37:09;99478.88;;;19.97;59.34
63285;BME280;49409;55.708;37.522;2022-07-29T02:39:37;99473.47;;;19.94;59.29
63285;BME280;49409;55.708;37.522;2022-07-29T02:42:07;99485.34;;;20.04;59.18
63285;BME280;49409;55.708;37.522;2022-07-29T02:44:35;99484.28;;;20.01;59.24
63285;BME280;49409;55.708;37.522;2022-07-29T02:52:34;99482.38;;;20.22;58.72
63285;BME280;49409;55.708;37.522;2022-07-29T02:57:54;99490.38;;;20.29;58.23
63285;BME280;49409;55.708;37.522;2022-07-29T03:00:28;99477.66;;;20.28;58.33
63285;BME280;49409;55.708;37.522;2022-07-29T03:02:56;99481.50;;;20.31;58.14
63285;BME280;49409;55.708;37.522;2022-07-29T03:05:24;99490.28;;;20.38;58.10
63285;BME280;49409;55.708;37.522;2022-07-29T03:08:17;99483.16;;;20.67;57.48
63285;BME280;49409;55.708;37.522;2022-07-29T03:10:43;99479.78;;;21.13;56.03
63285;BME280;49409;55.708;37.522;2022-07-29T03:13:09;99457.91;;;20.62;57.04
63285;BME280;49409;55.708;37.522;2022-07-29T03:15:36;99480.06;;;20.65;57.52
63285;BME280;49409;55.708;37.522;2022-07-29T03:18:02;99473.91;;;20.61;57.29
63285;BME280;49409;55.708;37.522;2022-07-29T03:20:29;99470.81;;;20.59;57.17
63285;BME280;49409;55.708;37.522;2022-07-29T03:22:54;99477.97;;;20.60;57.13
63285;BME280;49409;55.708;37.522;2022-07-29T03:25:20;99473.44;;;20.63;57.24
63285;BME280;49409;55.708;37.522;2022-07-29T03:27:46;99466.00;;;20.74;56.87
63285;BME280;49409;55.708;37.522;2022-07-29T03:30:13;99460.97;;;20.78;56.24
63285;BME280;49409;55.708;37.522;2022-07-29T03:32:39;99454.56;;;20.93;55.96
63285;BME280;49409;55.708;37.522;2022-07-29T03:35:06;99475.88;;;21.26;55.76
63285;BME280;49409;55.708;37.522;2022-07-29T03:37:32;99452.84;;;21.36;55.35
63285;BME280;49409;55.708;37.522;2022-07-29T03:40:00;99468.34;;;21.73;54.94
63285;BME280;49409;55.708;37.522;2022-07-29T03:42:33;99457.22;;;22.05;54.65
63285;BME280;49409;55.708;37.522;2022-07-29T03:45:07;99453.03;;;22.47;53.70
63285;BME280;49409;55.708;37.522;2022-07-29T03:47:38;99474.47;;;22.82;52.96
63285;BME280;49409;55.708;37.522;2022-07-29T03:50:07;99473.13;;;23.03;51.72
63285;BME280;49409;55.708;37.522;2022-07-29T03:52:34;99472.03;;;23.38;50.89
63285;BME280;49409;55.708;37.522;2022-07-29T03:55:01;99475.16;;;23.57;50.34
63285;BME280;49409;55.708;37.522;2022-07-29T03:57:28;99470.19;;;23.95;50.05
63285;BME280;49409;55.708;37.522;2022-07-29T03:59:56;99468.97;;;24.02;48.97
63285;BME280;49409;55.708;37.522;2022-07-29T04:02:23;99470.00;;;24.27;48.88
63285;BME280;49409;55.708;37.522;2022-07-29T04:04:48;99470.56;;;24.53;47.45
63285;BME280;49409;55.708;37.522;2022-07-29T04:07:15;99473.09;;;24.80;47.58
63285;BME280;49409;55.708;37.522;2022-07-29T04:09:41;99483.53;;;25.13;45.82
63285;BME280;49409;55.708;37.522;2022-07-29T04:12:07;99489.91;;;25.36;45.40
63285;BME280;49409;55.708;37.522;2022-07-29T04:14:33;99469.97;;;25.23;44.93
63285;BME280;49409;55.708;37.522;2022-07-29T04:17:00;99464.34;;;25.23;45.27
63285;BME280;49409;55.708;37.522;2022-07-29T04:19:25;99494.72;;;25.47;45.29
63285;BME280;49409;55.708;37.522;2022-07-29T04:21:51;99488.59;;;25.43;44.54
63285;BME280;49409;55.708;37.522;2022-07-29T04:24:17;99495.78;;;25.44;45.05
63285;BME280;49409;55.708;37.522;2022-07-29T04:26:42;99491.91;;;25.52;44.45
63285;BME280;49409;55.708;37.522;2022-07-29T04:29:08;99501.34;;;25.55;45.00
63285;BME280;49409;55.708;37.522;2022-07-29T04:31:34;99486.53;;;25.43;44.01
63285;BME280;49409;55.708;37.522;2022-07-29T04:33:59;99495.28;;;25.40;44.68
63285;BME280;49409;55.708;37.522;2022-07-29T04:36:25;99503.41;;;25.60;44.72
63285;BME280;49409;55.708;37.522;2022-07-29T04:38:50;99506.66;;;25.81;43.68
63285;BME280;49409;55.708;37.522;2022-07-29T04:41:16;99490.38;;;26.04;43.80
63285;BME280;49409;55.708;37.522;2022-07-29T04:43:41;99510.91;;;26.05;42.85
63285;BME280;49409;55.708;37.522;2022-07-29T04:46:07;99503.25;;;25.94;43.45
63285;BME280;49409;55.708;37.522;2022-07-29T04:48:33;99517.81;;;26.04;43.66
63285;BME280;49409;55.708;37.522;2022-07-29T04:50:59;99502.44;;;26.05;43.44
63285;BME280;49409;55.708;37.522;2022-07-29T04:53:24;99498.31;;;26.06;43.96
63285;BME280;49409;55.708;37.522;2022-07-29T04:55:50;99483.75;;;26.02;42.95
63285;BME280;49409;55.708;37.522;2022-07-29T04:58:16;99514.69;;;26.13;42.48
63285;BME280;49409;55.708;37.522;2022-07-29T05:00:41;99507.34;;;25.99;43.55
63285;BME280;49409;55.708;37.522;2022-07-29T05:03:07;99492.75;;;25.95;43.35
63285;BME280;49409;55.708;37.522;2022-07-29T05:05:32;99483.28;;;25.86;42.63
63285;BME280;49409;55.708;37.522;2022-07-29T05:07:58;99517.28;;;26.11;43.63
63285;BME280;49409;55.708;37.522;2022-07-29T05:10:24;99512.66;;;26.08;42.95
63285;BME280;49409;55.708;37.522;2022-07-29T05:12:49;99515.28;;;25.95;43.58
63285;BME280;49409;55.708;37.522;2022-07-29T05:15:15;99500.97;;;25.92;43.26
63285;BME280;49409;55.708;37.522;2022-07-29T05:17:40;99503.22;;;26.05;43.48
63285;BME280;49409;55.708;37.522;2022-07-29T05:20:06;99497.63;;;25.94;43.38
63285;BME280;49409;55.708;37.522;2022-07-29T05:22:32;99500.44;;;25.88;43.68
63285;BME280;49409;55.708;37.522;2022-07-29T05:24:58;99509.13;;;26.02;43.16
63285;BME280;49409;55.708;37.522;2022-07-29T05:27:23;99509.31;;;26.15;43.23
63285;BME280;49409;55.708;37.522;2022-07-29T05:29:49;99513.09;;;26.23;42.69
63285;BME280;49409;55.708;37.522;2022-07-29T05:32:14;99501.81;;;26.23;43.25
63285;BME280;49409;55.708;37.522;2022-07-29T05:34:40;99492.56;;;26.28;42.85
63285;BME280;49409;55.708;37.522;2022-07-29T05:37:06;99490.75;;;26.31;42.75
63285;BME280;49409;55.708;37.522;2022-07-29T05:39:31;99491.66;;;26.45;42.80
63285;BME280;49409;55.708;37.522;2022-07-29T05:41:57;99483.75;;;26.38;42.15
63285;BME280;49409;55.708;37.522;2022-07-29T05:44:22;99507.94;;;26.27;42.18
63285;BME280;49409;55.708;37.522;2022-07-29T05:46:48;99497.69;;;26.24;42.65
63285;BME280;49409;55.708;37.522;2022-07-29T05:49:13;99502.78;;;26.31;42.13
63285;BME280;49409;55.708;37.522;2022-07-29T05:51:39;99498.00;;;26.21;42.47
63285;BME280;49409;55.708;37.522;2022-07-29T05:54:05;99510.16;;;26.40;43.77
63285;BME280;49409;55.708;37.522;2022-07-29T05:56:31;99487.06;;;26.42;42.81
63285;BME280;49409;55.708;37.522;2022-07-29T05:58:56;99509.03;;;26.60;41.54
63285;BME280;49409;55.708;37.522;2022-07-29T06:01:22;99484.63;;;26.57;41.51
63285;BME280;49409;55.708;37.522;2022-07-29T06:03:47;99483.88;;;26.57;42.01
63285;BME280;49409;55.708;37.522;2022-07-29T06:06:13;99481.50;;;26.66;41.24
63285;BME280;49409;55.708;37.522;2022-07-29T06:08:38;99490.22;;;26.68;41.39
63285;BME280;49409;55.708;37.522;2022-07-29T06:11:05;99500.91;;;26.76;41.22
63285;BME280;49409;55.708;37.522;2022-07-29T06:13:30;99498.22;;;26.89;41.54
63285;BME280;49409;55.708;37.522;2022-07-29T06:15:56;99494.50;;;27.05;41.89
63285;BME280;49409;55.708;37.522;2022-07-29T06:18:22;99503.31;;;27.21;40.78
63285;BME280;49409;55.708;37.522;2022-07-29T06:20:51;99502.19;;;27.35;40.17
63285;BME280;49409;55.708;37.522;2022-07-29T06:23:17;99491.91;;;27.32;39.52
63285;BME280;49409;55.708;37.522;2022-07-29T06:25:43;99501.78;;;27.44;39.51
63285;BME280;49409;55.708;37.522;2022-07-29T06:28:09;99497.22;;;27.41;39.61
63285;BME280;49409;55.708;37.522;2022-07-29T06:30:34;99486.72;;;27.36;41.61
63285;BME280;49409;55.708;37.522;2022-07-29T06:33:00;99490.59;;;27.58;39.62
63285;BME280;49409;55.708;37.522;2022-07-29T06:35:27;99482.34;;;27.60;38.51
63285;BME280;49409;55.708;37.522;2022-07-29T06:37:52;99477.66;;;27.43;37.95
63285;BME280;49409;55.708;37.522;2022-07-29T06:40:18;99488.34;;;27.50;39.23
63285;BME280;49409;55.708;37.522;2022-07-29T06:43:02;99480.50;;;27.43;39.46
63285;BME280;49409;55.708;37.522;2022-07-29T06:45:27;99494.47;;;27.55;38.48
63285;BME280;49409;55.708;37.522;2022-07-29T06:47:53;99484.34;;;27.65;39.32
63285;BME280;49409;55.708;37.522;2022-07-29T06:50:18;99462.19;;;27.69;37.54
63285;BME280;49409;55.708;37.522;2022-07-29T06:52:44;99473.56;;;27.82;36.86
63285;BME280;49409;55.708;37.522;2022-07-29T06:55:10;99482.91;;;27.77;37.45
63285;BME280;49409;55.708;37.522;2022-07-29T06:57:35;99490.16;;;27.73;37.21
63285;BME280;49409;55.708;37.522;2022-07-29T07:00:01;99480.13;;;27.72;37.95
63285;BME280;49409;55.708;37.522;2022-07-29T07:02:29;99472.50;;;27.85;36.54
63285;BME280;49409;55.708;37.522;2022-07-29T07:04:54;99481.25;;;27.87;36.80
63285;BME280;49409;55.708;37.522;2022-07-29T07:07:20;99482.59;;;27.81;36.24
63285;BME280;49409;55.708;37.522;2022-07-29T07:09:45;99490.81;;;27.60;38.23
63285;BME280;49409;55.708;37.522;2022-07-29T07:12:11;99493.28;;;27.69;38.69
63285;BME280;49409;55.708;37.522;2022-07-29T07:14:36;99469.44;;;27.64;36.90
63285;BME280;49409;55.708;37.522;2022-07-29T07:17:02;99492.53;;;27.87;35.83
63285;BME280;49409;55.708;37.522;2022-07-29T07:19:29;99491.91;;;27.76;35.99
63285;BME280;49409;55.708;37.522;2022-07-29T07:21:54;99483.88;;;27.80;36.86
63285;BME280;49409;55.708;37.522;2022-07-29T07:24:20;99492.84;;;28.03;36.91
63285;BME280;49409;55.708;37.522;2022-07-29T07:26:45;99495.06;;;28.10;36.17
63285;BME280;49409;55.708;37.522;2022-07-29T07:29:11;99487.81;;;27.96;37.16
63285;BME280;49409;55.708;37.522;2022-07-29T07:31:37;99495.59;;;28.08;35.36
63285;BME280;49409;55.708;37.522;2022-07-29T07:34:03;99494.66;;;28.19;36.27
63285;BME280;49409;55.708;37.522;2022-07-29T07:36:29;99496.97;;;28.02;36.03
63285;BME280;49409;55.708;37.522;2022-07-29T07:38:54;99505.22;;;27.81;35.00
63285;BME280;49409;55.708;37.522;2022-07-29T07:41:20;99500.63;;;27.59;35.64
63285;BME280;49409;55.708;37.522;2022-07-29T07:43:46;99492.84;;;27.40;35.53
63285;BME280;49409;55.708;37.522;2022-07-29T07:46:12;99459.78;;;27.35;35.29
63285;BME280;49409;55.708;37.522;2022-07-29T07:48:37;99490.38;;;27.56;34.47
63285;BME280;49409;55.708;37.522;2022-07-29T07:51:03;99497.06;;;27.53;34.44
63285;BME280;49409;55.708;37.522;2022-07-29T07:53:28;99476.34;;;27.25;34.73
63285;BME280;49409;55.708;37.522;2022-07-29T07:55:55;99490.63;;;27.33;34.93
63285;BME280;49409;55.708;37.522;2022-07-29T07:58:20;99508.88;;;27.32;35.02
63285;BME280;49409;55.708;37.522;2022-07-29T08:00:46;99500.97;;;27.25;35.25
63285;BME280;49409;55.708;37.522;2022-07-29T08:03:12;99504.09;;;27.21;34.09
63285;BME280;49409;55.708;37.522;2022-07-29T08:05:39;99513.38;;;27.16;34.05
63285;BME280;49409;55.708;37.522;2022-07-29T08:08:05;99515.25;;;27.08;33.87
63285;BME280;49409;55.708;37.522;2022-07-29T08:10:31;99500.38;;;27.07;35.70
63285;BME280;49409;55.708;37.522;2022-07-29T08:13:15;99512.91;;;27.37;35.07
63285;BME280;49409;55.708;37.522;2022-07-29T08:15:41;99505.13;;;27.43;34.89
63285;BME280;49409;55.708;37.522;2022-07-29T08:18:08;99505.78;;;27.55;34.85
63285;BME280;49409;55.708;37.522;2022-07-29T08:20:34;99506.88;;;27.70;34.90
63285;BME280;49409;55.708;37.522;2022-07-29T08:23:01;99490.69;;;27.71;35.75
63285;BME280;49409;55.708;37.522;2022-07-29T08:25:27;99511.63;;;27.81;34.44
63285;BME280;49409;55.708;37.522;2022-07-29T08:27:53;99507.66;;;27.71;34.19
63285;BME280;49409;55.708;37.522;2022-07-29T08:30:18;99496.94;;;27.64;33.78
63285;BME280;49409;55.708;37.522;2022-07-29T08:32:44;99510.66;;;27.35;34.26
63285;BME280;49409;55.708;37.522;2022-07-29T08:35:09;99497.88;;;27.23;34.47
63285;BME280;49409;55.708;37.522;2022-07-29T08:37:35;99498.50;;;27.40;34.90
63285;BME280;49409;55.708;37.522;2022-07-29T08:40:00;99506.16;;;27.64;34.50
63285;BME280;49409;55.708;37.522;2022-07-29T08:42:26;99484.41;;;27.78;34.67
63285;BME280;49409;55.708;37.522;2022-07-29T08:44:52;99500.25;;;28.06;34.89
63285;BME280;49409;55.708;37.522;2022-07-29T08:47:18;99492.22;;;28.10;34.82
63285;BME280;49409;55.708;37.522;2022-07-29T08:49:44;99489.50;;;28.04;33.38
63285;BME280;49409;55.708;37.522;2022-07-29T08:52:12;99498.09;;;27.74;32.95
63285;BME280;49409;55.708;37.522;2022-07-29T08:54:39;99490.38;;;27.56;34.48
63285;BME280;49409;55.708;37.522;2022-07-29T08:57:09;99484.38;;;27.40;34.30
63285;BME280;49409;55.708;37.522;2022-07-29T08:59:37;99501.31;;;27.40;34.25
63285;BME280;49409;55.708;37.522;2022-07-29T09:02:07;99499.59;;;27.37;34.81
63285;BME280;49409;55.708;37.522;2022-07-29T09:04:37;99501.19;;;27.52;34.01
63285;BME280;49409;55.708;37.522;2022-07-29T09:07:04;99505.28;;;27.32;34.03
63285;BME280;49409;55.708;37.522;2022-07-29T09:09:30;99499.63;;;27.32;34.34
63285;BME280;49409;55.708;37.522;2022-07-29T09:11:59;99488.50;;;27.39;34.29
63285;BME280;49409;55.708;37.522;2022-07-29T09:14:25;99502.34;;;27.62;33.84
63285;BME280;49409;55.708;37.522;2022-07-29T09:16:55;99489.59;;;27.74;34.55
63285;BME280;49409;55.708;37.522;2022-07-29T09:21:49;99491.00;;;27.86;35.25
63285;BME280;49409;55.708;37.522;2022-07-29T09:24:40;99494.38;;;28.04;34.22
63285;BME280;49409;55.708;37.522;2022-07-29T09:27:21;99499.97;;;27.91;34.51
63285;BME280;49409;55.708;37.522;2022-07-29T09:29:55;99505.41;;;27.64;33.37
63285;BME280;49409;55.708;37.522;2022-07-29T09:32:21;99497.69;;;27.45;33.00
63285;BME280;49409;55.708;37.522;2022-07-29T09:34:46;99490.19;;;27.48;33.92
63285;BME280;49409;55.708;37.522;2022-07-29T09:37:25;99496.81;;;27.75;34.05
63285;BME280;49409;55.708;37.522;2022-07-29T09:39:51;99504.09;;;27.46;33.33
63285;BME280;49409;55.708;37.522;2022-07-29T09:42:28;99488.19;;;27.43;34.10
63285;BME280;49409;55.708;37.522;2022-07-29T09:44:54;99506.13;;;27.21;33.12
63285;BME280;49409;55.708;37.522;2022-07-29T09:47:19;99500.00;;;27.17;33.54
63285;BME280;49409;55.708;37.522;2022-07-29T09:49:58;99489.47;;;27.17;34.23
63285;BME280;49409;55.708;37.522;2022-07-29T09:52:25;99502.88;;;27.41;33.65
63285;BME280;49409;55.708;37.522;2022-07-29T09:54:51;99506.09;;;27.70;32.72
63285;BME280;49409;55.708;37.522;2022-07-29T09:57:37;99507.25;;;27.80;33.58
63285;BME280;49409;55.708;37.522;2022-07-29T10:00:15;99509.03;;;27.83;33.84
63285;BME280;49409;55.708;37.522;2022-07-29T10:02:44;99508.91;;;27.95;32.82
63285;BME280;49409;55.708;37.522;2022-07-29T10:05:24;99502.19;;;27.98;32.94
63285;BME280;49409;55.708;37.522;2022-07-29T10:07:50;99513.13;;;27.82;32.69
63285;BME280;49409;55.708;37.522;2022-07-29T10:10:30;99491.75;;;27.68;33.74
63285;BME280;49409;55.708;37.522;2022-07-29T10:12:58;99514.50;;;27.57;33.11
63285;BME280;49409;55.708;37.522;2022-07-29T10:15:26;99499.34;;;27.35;32.97
63285;BME280;49409;55.708;37.522;2022-07-29T10:17:53;99515.09;;;27.25;33.31
63285;BME280;49409;55.708;37.522;2022-07-29T10:20:20;99500.84;;;27.12;33.31
63285;BME280;49409;55.708;37.522;2022-07-29T10:22:47;99476.00;;;27.04;33.35
63285;BME280;49409;55.708;37.522;2022-07-29T10:25:14;99466.72;;;27.09;33.02
63285;BME280;49409;55.708;37.522;2022-07-29T10:27:40;99499.81;;;27.39;33.24
63285;BME280;49409;55.708;37.522;2022-07-29T10:30:06;99494.16;;;27.39;33.06
63285;BME280;49409;55.708;37.522;2022-07-29T10:38:01;99505.03;;;27.54;32.02
63285;BME280;49409;55.708;37.522;2022-07-29T10:40:46;99506.72;;;27.63;32.62
63285;BME280;49409;55.708;37.522;2022-07-29T10:43:36;99500.09;;;27.79;32.21
63285;BME280;49409;55.708;37.522;2022-07-29T10:46:04;99497.16;;;27.91;31.73
63285;BME280;49409;55.708;37.522;2022-07-29T10:48:30;99465.94;;;27.77;30.90
63285;BME280;49409;55.708;37.522;2022-07-29T10:51:00;99483.69;;;27.97;31.40
63285;BME280;49409;55.708;37.522;2022-07-29T10:53:51;99495.44;;;28.20;31.62
63285;BME280;49409;55.708;37.522;2022-07-29T10:56:24;99499.34;;;28.49;31.34
63285;BME280;49409;55.708;37.522;2022-07-29T11:01:50;99498.47;;;27.65;32.46
63285;BME280;49409;55.708;37.522;2022-07-29T11:07:11;99502.25;;;27.48;32.58
63285;BME280;49409;55.708;37.522;2022-07-29T11:09:37;99509.44;;;27.49;33.03
63285;BME280;49409;55.708;37.522;2022-07-29T11:12:45;99507.44;;;27.44;33.03
63285;BME280;49409;55.708;37.522;2022-07-29T11:14:57;99508.06;;;27.37;34.00
63285;BME280;49409;55.708;37.522;2022-07-29T11:17:24;99504.28;;;27.29;33.92
63285;BME280;49409;55.708;37.522;2022-07-29T11:19:50;99501.56;;;27.18;34.38
63285;BME280;49409;55.708;37.522;2022-07-29T11:22:35;99495.44;;;27.38;33.76
63285;BME280;49409;55.708;37.522;2022-07-29T11:25:16;99497.81;;;27.34;33.95
63285;BME280;49409;55.708;37.522;2022-07-29T11:27:43;99514.38;;;27.19;33.83
63285;BME280;49409;55.708;37.522;2022-07-29T11:30:09;99501.66;;;27.06;34.73
63285;BME280;49409;55.708;37.522;2022-07-29T11:32:39;99490.66;;;27.03;34.01
63285;BME280;49409;55.708;37.522;2022-07-29T11:35:17;99512.00;;;27.23;35.06
63285;BME280;49409;55.708;37.522;2022-07-29T11:43:49;99494.63;;;27.43;34.70
63285;BME280;49409;55.708;37.522;2022-07-29T11:46:41;99512.63;;;27.65;34.27
63285;BME280;49409;55.708;37.522;2022-07-29T11:49:03;99504.75;;;27.77;34.21
63285;BME280;49409;55.708;37.522;2022-07-29T11:51:29;99485.94;;;27.79;33.32
63285;BME280;49409;55.708;37.522;2022-07-29T11:53:57;99494.53;;;28.12;33.82
63285;BME280;49409;55.708;37.522;2022-07-29T11:56:23;99511.19;;;28.34;32.55
63285;BME280;49409;55.708;37.522;2022-07-29T11:59:02;99506.34;;;28.48;31.93
63285;BME280;49409;55.708;37.522;2022-07-29T12:01:29;99490.13;;;28.29;32.40
63285;BME280;49409;55.708;37.522;2022-07-29T12:04:07;99507.34;;;28.51;32.16
63285;BME280;49409;55.708;37.522;2022-07-29T12:06:34;99501.50;;;28.43;31.85
63285;BME280;49409;55.708;37.522;2022-07-29T12:08:59;99483.19;;;28.31;31.19
63285;BME280;49409;55.708;37.522;2022-07-29T12:11:25;99492.56;;;28.39;32.17
63285;BME280;49409;55.708;37.522;2022-07-29T12:13:53;99474.16;;;28.32;31.06
63285;BME280;49409;55.708;37.522;2022-07-29T12:16:20;99490.63;;;28.47;32.28
63285;BME280;49409;55.708;37.522;2022-07-29T12:18:59;99478.31;;;28.63;33.03
63285;BME280;49409;55.708;37.522;2022-07-29T12:21:26;99475.66;;;28.52;31.35
63285;BME280;49409;55.708;37.522;2022-07-29T12:23:53;99486.34;;;28.59;32.20
63285;BME280;49409;55.708;37.522;2022-07-29T12:26:19;99482.97;;;28.61;32.24
63285;BME280;49409;55.708;37.522;2022-07-29T12:28:45;99484.53;;;28.62;31.13
63285;BME280;49409;55.708;37.522;2022-07-29T12:31:14;99471.81;;;28.49;31.82
63285;BME280;49409;55.708;37.522;2022-07-29T12:33:40;99469.41;;;28.40;32.07
63285;BME280;49409;55.708;37.522;2022-07-29T12:36:05;99489.44;;;28.42;31.50
63285;BME280;49409;55.708;37.522;2022-07-29T12:38:31;99484.97;;;28.47;32.01
63285;BME280;49409;55.708;37.522;2022-07-29T12:40:57;99475.81;;;28.41;32.01
63285;BME280;49409;55.708;37.522;2022-07-29T12:43:24;99470.53;;;28.51;31.48
63285;BME280;49409;55.708;37.522;2022-07-29T12:45:55;99491.06;;;28.70;32.92
63285;BME280;49409;55.708;37.522;2022-07-29T12:48:36;99487.50;;;28.96;32.44
63285;BME280;49409;55.708;37.522;2022-07-29T12:51:04;99462.00;;;28.70;31.49
63285;BME280;49409;55.708;37.522;2022-07-29T12:53:31;99486.13;;;28.57;31.33
63285;BME280;49409;55.708;37.522;2022-07-29T12:55:58;99486.53;;;28.29;31.23
63285;BME280;49409;55.708;37.522;2022-07-29T12:58:40;99481.47;;;28.41;32.12
63285;BME280;49409;55.708;37.522;2022-07-29T13:01:17;99481.25;;;28.06;31.55
63285;BME280;49409;55.708;37.522;2022-07-29T13:03:53;99478.63;;;28.08;32.17
63285;BME280;49409;55.708;37.522;2022-07-29T13:09:04;99491.00;;;28.24;31.00
63285;BME280;49409;55.708;37.522;2022-07-29T13:13:59;99490.41;;;28.13;32.39
63285;BME280;49409;55.708;37.522;2022-07-29T13:16:24;99478.94;;;28.05;31.93
63285;BME280;49409;55.708;37.522;2022-07-29T13:19:08;99486.53;;;28.29;32.49
63285;BME280;49409;55.708;37.522;2022-07-29T13:21:35;99453.88;;;27.96;32.04
63285;BME280;49409;55.708;37.522;2022-07-29T13:24:01;99490.56;;;28.20;32.38
63285;BME280;49409;55.708;37.522;2022-07-29T13:29:36;99490.81;;;28.36;33.55
63285;BME280;49409;55.708;37.522;2022-07-29T13:32:05;99485.25;;;28.30;32.74
63285;BME280;49409;55.708;37.522;2022-07-29T13:34:30;99470.28;;;28.16;32.97
63285;BME280;49409;55.708;37.522;2022-07-29T13:36:56;99480.97;;;28.23;33.82
63285;BME280;49409;55.708;37.522;2022-07-29T13:39:21;99479.69;;;28.24;32.44
63285;BME280;49409;55.708;37.522;2022-07-29T13:41:47;99468.97;;;28.17;32.74
63285;BME280;49409;55.708;37.522;2022-07-29T13:44:12;99481.06;;;28.18;31.69